Time;durP1;ratioP1;P1;durP2;ratioP2;P2;SDS_P1;SDS_P2;PMS_P1;PMS_P2;Temp;Humidity;BMP_temperature;BMP_pressure;BME280_temperature;BME280_humidity;BME280_pressure;Samples;Min_cycle;Max_cycle;Signal;HPM_P1;HPM_P2
2021/04/07 00:01:17;;;;;;;16.77;4.07;;;;;;;-1.16;100.00;101641.75;5226830;28;20363;-77
2021/04/07 00:03:47;;;;;;;12.85;3.67;;;;;;;-1.00;100.00;101648.00;5226965;28;20083;-77
2021/04/07 00:06:18;;;;;;;21.75;4.97;;;;;;;-0.90;100.00;101651.91;5225757;28;20032;-77
2021/04/07 00:08:50;;;;;;;21.83;3.88;;;;;;;-0.73;100.00;101661.63;5227008;28;20478;-77
2021/04/07 00:11:20;;;;;;;19.60;3.75;;;;;;;-0.62;100.00;101653.22;5226305;28;20029;-77
2021/04/07 00:13:50;;;;;;;16.85;4.28;;;;;;;-0.64;100.00;101669.09;5226502;28;20025;-78
2021/04/07 00:16:22;;;;;;;18.17;4.63;;;;;;;-0.53;100.00;101673.84;5226916;28;20060;-78
2021/04/07 00:18:52;;;;;;;16.73;5.57;;;;;;;-0.58;100.00;101670.59;5226651;28;20027;-77
2021/04/07 00:21:23;;;;;;;21.50;5.13;;;;;;;-0.47;100.00;101675.34;5226772;28;20107;-77
2021/04/07 00:23:53;;;;;;;17.75;5.35;;;;;;;-0.41;100.00;101670.59;5225060;28;20029;-77
2021/04/07 00:26:24;;;;;;;17.27;4.28;;;;;;;-0.48;100.00;101673.63;5227788;28;20082;-77
2021/04/07 00:28:54;;;;;;;21.92;4.65;;;;;;;-0.58;100.00;101673.22;5226548;28;20489;-78
2021/04/07 00:31:25;;;;;;;18.77;5.00;;;;;;;-0.65;100.00;101667.41;5226539;28;20024;-78
2021/04/07 00:33:55;;;;;;;14.88;4.50;;;;;;;-0.75;100.00;101657.34;5226317;28;20429;-77
2021/04/07 00:36:26;;;;;;;19.05;4.50;;;;;;;-0.86;100.00;101657.88;5226031;28;20108;-77
2021/04/07 00:38:56;;;;;;;13.75;4.55;;;;;;;-0.93;100.00;101653.84;5226229;28;20044;-78
2021/04/07 00:41:27;;;;;;;24.40;5.45;;;;;;;-0.98;100.00;101664.59;5225865;28;20033;-77
2021/04/07 00:44:04;;;;;;;21.98;5.00;;;;;;;-1.04;100.00;101670.16;5226708;28;20024;-77
2021/04/07 00:46:35;;;;;;;22.52;4.80;;;;;;;-1.10;100.00;101675.72;5226332;28;20033;-77
2021/04/07 00:49:06;;;;;;;26.05;5.38;;;;;;;-1.22;100.00;101663.94;5224370;28;20078;-77
2021/04/07 00:51:41;;;;;;;18.38;5.22;;;;;;;-1.25;100.00;101682.53;5225988;28;20025;-77
2021/04/07 00:54:11;;;;;;;19.05;5.88;;;;;;;-1.20;100.00;101675.28;5225967;28;20508;-78
2021/04/07 00:56:44;;;;;;;18.33;4.78;;;;;;;-1.27;100.00;101668.56;5225927;28;20102;-77
2021/04/07 00:59:18;;;;;;;23.38;4.72;;;;;;;-1.31;100.00;101667.88;5225339;28;20147;-77
2021/04/07 01:01:48;;;;;;;20.02;4.28;;;;;;;-1.32;100.00;101670.56;5226047;28;20115;-77
2021/04/07 01:04:20;;;;;;;12.45;3.08;;;;;;;-1.34;100.00;101682.94;5226229;28;20119;-77
2021/04/07 01:06:51;;;;;;;13.68;2.92;;;;;;;-1.34;100.00;101672.41;5226571;28;20023;-77
2021/04/07 01:09:22;;;;;;;18.65;3.20;;;;;;;-1.34;100.00;101672.41;5225919;28;20055;-77
2021/04/07 01:11:53;;;;;;;15.65;2.55;;;;;;;-1.35;100.00;101665.44;5223656;28;20097;-77
2021/04/07 01:14:24;;;;;;;11.75;2.45;;;;;;;-1.32;100.00;101674.03;5224811;28;20017;-77
2021/04/07 01:16:55;;;;;;;14.95;2.75;;;;;;;-1.32;100.00;101670.56;5225962;28;20389;-77
2021/04/07 01:19:26;;;;;;;15.85;2.53;;;;;;;-1.29;100.00;101672.22;5225532;28;20029;-77
2021/04/07 01:21:57;;;;;;;11.20;2.85;;;;;;;-1.23;100.00;101669.28;5225632;28;20059;-77
2021/04/07 01:24:30;;;;;;;14.55;2.13;;;;;;;-1.20;100.00;101670.00;5225298;28;20063;-77
2021/04/07 01:27:01;;;;;;;9.57;1.80;;;;;;;-1.21;100.00;101673.53;5224663;28;20099;-77
2021/04/07 01:29:31;;;;;;;14.77;2.45;;;;;;;-1.21;100.00;101665.66;5225615;28;20167;-77
2021/04/07 01:32:02;;;;;;;9.80;2.20;;;;;;;-1.23;100.00;101664.03;5225448;28;20037;-77
2021/04/07 01:34:33;;;;;;;13.32;2.10;;;;;;;-1.24;100.00;101665.81;5225074;28;20029;-77
2021/04/07 01:37:05;;;;;;;9.02;1.80;;;;;;;-1.22;100.00;101668.34;5225267;28;20490;-77
2021/04/07 01:39:35;;;;;;;19.13;2.10;;;;;;;-1.15;100.00;101657.50;5225280;28;20021;-77
2021/04/07 01:42:07;;;;;;;16.15;2.53;;;;;;;-1.19;100.00;101660.34;5225010;28;20024;-77
2021/04/07 01:44:39;;;;;;;10.13;2.10;;;;;;;-1.13;100.00;101667.94;5225436;28;20293;-77
2021/04/07 01:47:13;;;;;;;10.10;2.00;;;;;;;-1.10;100.00;101668.66;5225085;28;20025;-77
2021/04/07 01:49:44;;;;;;;9.30;2.38;;;;;;;-1.02;100.00;101663.00;5224832;28;20066;-77
2021/04/07 01:52:14;;;;;;;13.55;2.05;;;;;;;-0.97;100.00;101666.28;5225176;28;20436;-77
2021/04/07 01:54:49;;;;;;;8.40;1.55;;;;;;;-0.86;100.00;101679.81;5225033;28;20036;-77
2021/04/07 01:57:20;;;;;;;16.52;2.47;;;;;;;-0.83;100.00;101677.03;5225330;28;20029;-76
2021/04/07 01:59:51;;;;;;;14.40;2.38;;;;;;;-0.85;100.00;101678.91;5224368;28;20550;-77
2021/04/07 02:02:21;;;;;;;11.70;2.60;;;;;;;-0.80;100.00;101666.34;5225050;28;20497;-76
2021/04/07 02:04:52;;;;;;;12.00;2.38;;;;;;;-0.73;100.00;101666.06;5224741;28;20021;-77
2021/04/07 02:07:23;;;;;;;25.63;3.15;;;;;;;-0.73;100.00;101669.53;5224974;28;20028;-77
2021/04/07 02:09:53;;;;;;;18.67;2.42;;;;;;;-0.75;100.00;101675.81;5224638;28;20447;-77
2021/04/07 02:12:29;;;;;;;15.60;3.22;;;;;;;-0.71;100.00;101683.50;5220003;28;20026;-77
2021/04/07 02:15:09;;;;;;;15.20;2.80;;;;;;;-0.66;100.00;101678.00;5225061;28;20028;-77
2021/04/07 02:17:40;;;;;;;13.70;3.30;;;;;;;-0.57;100.00;101696.00;5224825;28;20056;-77
2021/04/07 02:20:10;;;;;;;17.95;3.28;;;;;;;-0.55;100.00;101689.75;5224743;28;20044;-77
2021/04/07 02:22:41;;;;;;;14.32;2.95;;;;;;;-0.51;100.00;101695.69;5223272;28;20020;-78
2021/04/07 02:25:13;;;;;;;15.20;3.95;;;;;;;-0.47;100.00;101701.69;5224642;28;20482;-77
2021/04/07 02:27:43;;;;;;;15.88;3.60;;;;;;;-0.49;100.00;101701.78;5224821;28;20494;-77
2021/04/07 02:30:15;;;;;;;13.10;3.85;;;;;;;-0.52;100.00;101686.09;5224364;28;20029;-77
2021/04/07 02:32:46;;;;;;;11.77;4.10;;;;;;;-0.53;100.00;101689.66;5224663;28;20040;-77
2021/04/07 02:35:16;;;;;;;15.75;4.72;;;;;;;-0.50;100.00;101689.53;5223791;28;20044;-77
2021/04/07 02:37:47;;;;;;;17.08;5.40;;;;;;;-0.54;100.00;101672.16;5224674;28;20032;-77
2021/04/07 02:40:17;;;;;;;20.00;7.78;;;;;;;-0.50;100.00;101686.00;5223448;28;20033;-77
2021/04/07 02:42:48;;;;;;;41.15;19.17;;;;;;;-0.44;100.00;101685.75;5223087;28;20025;-77
2021/04/07 02:45:18;;;;;;;15.85;7.32;;;;;;;-0.47;100.00;101686.72;5224173;28;20029;-78
2021/04/07 02:47:49;;;;;;;16.38;6.65;;;;;;;-0.47;100.00;101686.72;5224906;28;20131;-78
2021/04/07 02:50:19;;;;;;;9.70;5.07;;;;;;;-0.48;100.00;101682.38;5224602;28;20041;-77
2021/04/07 02:52:49;;;;;;;12.57;4.95;;;;;;;-0.41;100.00;101675.03;5224351;28;20033;-77
2021/04/07 02:55:20;;;;;;;21.30;5.25;;;;;;;-0.47;100.00;101668.28;5224833;28;20033;-77
2021/04/07 02:57:51;;;;;;;9.65;3.72;;;;;;;-0.41;100.00;101665.31;5224482;28;20049;-77
2021/04/07 03:00:22;;;;;;;14.23;3.83;;;;;;;-0.48;100.00;101669.22;5224408;28;20071;-77
2021/04/07 03:02:52;;;;;;;8.85;3.30;;;;;;;-0.44;100.00;101665.50;5224340;28;20029;-77
2021/04/07 03:05:22;;;;;;;9.10;3.60;;;;;;;-0.57;100.00;101675.78;5223259;28;20017;-77
2021/04/07 03:07:53;;;;;;;7.95;3.20;;;;;;;-0.56;100.00;101676.63;5224149;28;20485;-77
2021/04/07 03:10:23;;;;;;;8.70;4.00;;;;;;;-0.52;100.00;101688.72;5215775;28;20033;-77
2021/04/07 03:12:54;;;;;;;10.95;4.13;;;;;;;-0.49;100.00;101675.41;5221167;28;20085;-77
2021/04/07 03:15:24;;;;;;;7.55;3.67;;;;;;;-0.53;100.00;101674.69;5227997;28;20486;-77
2021/04/07 03:17:55;;;;;;;11.52;3.58;;;;;;;-0.48;100.00;101673.63;5228304;28;20524;-77
2021/04/07 03:20:25;;;;;;;14.68;8.68;;;;;;;-0.47;100.00;101677.97;5227989;28;20029;-77
2021/04/07 03:22:56;;;;;;;41.88;19.23;;;;;;;-0.49;100.00;101685.97;5218323;28;20021;-77
2021/04/07 03:25:26;;;;;;;17.25;7.40;;;;;;;-0.51;100.00;101674.63;5222116;28;20079;-77
2021/04/07 03:27:56;;;;;;;10.95;4.55;;;;;;;-0.50;100.00;101683.38;5228020;28;20505;-77
2021/04/07 03:30:27;;;;;;;29.70;13.18;;;;;;;-0.49;100.00;101679.84;5227605;28;20382;-77
2021/04/07 03:32:58;;;;;;;12.88;4.43;;;;;;;-0.48;100.00;101671.84;5227946;28;20052;-77
2021/04/07 03:35:28;;;;;;;21.77;6.78;;;;;;;-0.41;100.00;101669.75;5227427;28;20042;-77
2021/04/07 03:37:58;;;;;;;20.00;4.65;;;;;;;-0.42;100.00;101675.97;5209962;28;20036;-77
2021/04/07 03:40:29;;;;;;;17.63;5.30;;;;;;;-0.38;100.00;101678.38;5227371;28;20044;-77
2021/04/07 03:42:59;;;;;;;9.88;4.25;;;;;;;-0.36;100.00;101680.91;5227824;28;20020;-77
2021/04/07 03:45:30;;;;;;;14.10;4.78;;;;;;;-0.38;100.00;101685.44;5227540;28;20036;-77
2021/04/07 03:48:00;;;;;;;17.48;3.83;;;;;;;-0.40;100.00;101682.00;5227304;28;20036;-76
2021/04/07 03:50:31;;;;;;;17.75;4.78;;;;;;;-0.39;100.00;101691.63;5227476;28;20031;-77
2021/04/07 03:53:01;;;;;;;14.18;4.63;;;;;;;-0.34;100.00;101689.63;5227105;28;20053;-77
2021/04/07 03:55:32;;;;;;;15.80;3.60;;;;;;;-0.31;100.00;101692.09;5227685;28;20114;-76
2021/04/07 03:58:03;;;;;;;14.57;3.33;;;;;;;-0.34;100.00;101693.13;5227356;28;20028;-76
2021/04/07 04:00:34;;;;;;;15.60;3.03;;;;;;;-0.34;100.00;101679.94;5226980;28;20021;-77
2021/04/07 04:03:05;;;;;;;18.20;3.30;;;;;;;-0.29;100.00;101685.84;5227119;28;20163;-76
2021/04/07 04:05:36;;;;;;;22.10;2.80;;;;;;;-0.24;100.00;101677.69;5227058;28;20102;-77
2021/04/07 04:08:07;;;;;;;18.83;2.50;;;;;;;-0.21;100.00;101681.94;5227378;28;20025;-76
2021/04/07 04:10:38;;;;;;;14.07;2.53;;;;;;;-0.21;100.00;101674.03;5219952;28;20505;-77
2021/04/07 04:13:09;;;;;;;9.40;2.50;;;;;;;-0.20;100.00;101679.25;5226412;28;20031;-76
2021/04/07 04:15:39;;;;;;;10.52;4.15;;;;;;;-0.15;100.00;101686.91;5227077;28;20079;-77
2021/04/07 04:18:10;;;;;;;52.08;15.25;;;;;;;-0.12;100.00;101686.75;5227195;28;20363;-76
2021/04/07 04:20:40;;;;;;;31.48;8.00;;;;;;;-0.05;100.00;101691.66;5226818;28;20494;-76
2021/04/07 04:23:11;;;;;;;17.70;4.55;;;;;;;-0.03;100.00;101687.16;5226498;28;20475;-76
2021/04/07 04:25:41;;;;;;;15.77;2.80;;;;;;;-0.05;100.00;101685.50;5226533;28;20042;-76
2021/04/07 04:28:12;;;;;;;24.58;4.35;;;;;;;0.01;100.00;101692.28;5225685;28;20032;-76
2021/04/07 04:30:42;;;;;;;24.55;4.97;;;;;;;0.01;100.00;101677.31;5226424;28;20028;-76
2021/04/07 04:33:13;;;;;;;12.27;3.58;;;;;;;-0.01;100.00;101685.28;5226501;28;20368;-76
2021/04/07 04:35:43;;;;;;;15.18;3.42;;;;;;;-0.02;100.00;101677.44;5226232;28;20486;-76
2021/04/07 04:38:16;;;;;;;17.48;3.60;;;;;;;-0.02;100.00;101680.09;5226014;28;20032;-77
2021/04/07 04:40:46;;;;;;;14.50;3.38;;;;;;;-0.02;100.00;101693.28;5226184;28;20086;-76
2021/04/07 04:43:17;;;;;;;15.73;3.22;;;;;;;-0.01;100.00;101697.63;5241857;28;20021;-76
2021/04/07 04:45:47;;;;;;;11.40;2.50;;;;;;;0.04;100.00;101703.50;5226410;28;20029;-76
2021/04/07 04:48:18;;;;;;;18.05;2.83;;;;;;;0.08;100.00;101698.94;5226142;28;20032;-76
2021/04/07 04:50:48;;;;;;;17.15;2.30;;;;;;;0.11;100.00;101704.94;5226261;28;20113;-76
2021/04/07 04:53:19;;;;;;;15.63;3.08;;;;;;;0.06;100.00;101711.38;5226368;28;20063;-76
2021/04/07 04:55:49;;;;;;;12.23;3.05;;;;;;;0.10;100.00;101702.34;5226557;28;20112;-76
2021/04/07 04:58:19;;;;;;;26.73;9.10;;;;;;;0.11;100.00;101704.94;5226147;28;20035;-76
2021/04/07 05:00:50;;;;;;;14.25;3.13;;;;;;;0.14;100.00;101696.84;5225744;28;20505;-77
2021/04/07 05:03:20;;;;;;;13.48;2.40;;;;;;;0.16;100.00;101707.34;5208303;28;20037;-76
2021/04/07 05:05:51;;;;;;;21.40;5.53;;;;;;;0.19;100.00;101699.25;5225789;28;20035;-76
2021/04/07 05:08:22;;;;;;;14.90;2.58;;;;;;;0.21;100.00;101718.50;5224671;28;20052;-76
2021/04/07 05:10:52;;;;;;;18.77;3.28;;;;;;;0.23;100.00;101711.34;5221254;28;20071;-76
2021/04/07 05:13:23;;;;;;;10.38;2.28;;;;;;;0.22;100.00;101707.00;5226056;28;20037;-76
2021/04/07 05:15:53;;;;;;;18.52;2.60;;;;;;;0.23;100.00;101706.94;5225660;28;20027;-76
2021/04/07 05:18:25;;;;;;;14.55;2.70;;;;;;;0.20;100.00;101707.09;5225802;28;20052;-76
2021/04/07 05:20:55;;;;;;;14.25;2.67;;;;;;;0.23;100.00;101714.00;5225443;28;20470;-76
2021/04/07 05:23:26;;;;;;;16.63;2.72;;;;;;;0.30;100.00;101717.16;5225737;28;20044;-76
2021/04/07 05:25:56;;;;;;;18.83;3.17;;;;;;;0.27;100.00;101725.25;5225354;28;20067;-76
2021/04/07 05:28:27;;;;;;;15.45;4.38;;;;;;;0.32;100.00;101725.88;5225297;28;20078;-76
2021/04/07 05:30:58;;;;;;;14.23;4.35;;;;;;;0.29;100.00;101729.50;5225411;28;20031;-76
2021/04/07 05:33:33;;;;;;;20.25;5.13;;;;;;;0.24;100.00;101719.19;5225409;28;20032;-76
2021/04/07 05:36:06;;;;;;;24.02;5.72;;;;;;;0.29;100.00;101726.88;5224739;28;20047;-77
2021/04/07 05:38:37;;;;;;;14.93;4.63;;;;;;;0.26;100.00;101724.41;5224998;28;20036;-77
2021/04/07 05:41:09;;;;;;;16.35;4.25;;;;;;;0.23;100.00;101738.59;5225060;28;20029;-76
2021/04/07 05:43:39;;;;;;;21.65;5.43;;;;;;;0.26;100.00;101732.31;5225618;28;20047;-76
2021/04/07 05:46:12;;;;;;;13.90;2.63;;;;;;;0.17;100.00;101736.28;5225347;28;20017;-76
2021/04/07 05:48:42;;;;;;;12.35;4.03;;;;;;;0.18;100.00;101724.78;5225149;28;20029;-77
2021/04/07 05:51:13;;;;;;;14.98;4.40;;;;;;;0.21;100.00;101727.28;5224821;28;20525;-75
2021/04/07 05:53:43;;;;;;;13.65;3.28;;;;;;;0.09;100.00;101732.31;5225255;28;20377;-76
2021/04/07 05:56:14;;;;;;;19.25;3.15;;;;;;;0.04;100.00;101739.59;5223948;28;20025;-76
2021/04/07 05:58:44;;;;;;;12.57;3.20;;;;;;;0.09;100.00;101734.94;5225090;28;20044;-75
2021/04/07 06:01:14;;;;;;;17.25;4.85;;;;;;;0.04;100.00;101745.72;5224671;28;20435;-75
2021/04/07 06:03:45;;;;;;;14.63;3.35;;;;;;;0.04;100.00;101737.81;5224646;28;20410;-75
2021/04/07 06:06:15;;;;;;;25.25;3.78;;;;;;;0.03;100.00;101733.47;5224965;28;20035;-76
2021/04/07 06:08:46;;;;;;;15.35;4.07;;;;;;;0.05;100.00;101736.91;5219948;28;20036;-75
2021/04/07 06:11:18;;;;;;;17.13;4.25;;;;;;;0.02;100.00;101744.13;5224459;28;20025;-75
2021/04/07 06:13:48;;;;;;;14.25;3.50;;;;;;;0.02;100.00;101741.47;5224120;28;20478;-74
2021/04/07 06:16:19;;;;;;;9.32;3.22;;;;;;;0.07;100.00;101744.75;5224867;28;20025;-74
2021/04/07 06:18:52;;;;;;;17.83;3.47;;;;;;;0.09;100.00;101742.88;5224767;28;20025;-75
2021/04/07 06:21:22;;;;;;;16.35;4.10;;;;;;;0.19;100.00;101749.38;5224749;28;20032;-75
2021/04/07 06:23:53;;;;;;;15.02;5.78;;;;;;;0.22;100.00;101749.25;5224683;28;20032;-74
2021/04/07 06:26:23;;;;;;;10.18;3.78;;;;;;;0.29;100.00;101745.34;5224521;28;20016;-74
2021/04/07 06:28:54;;;;;;;16.13;7.38;;;;;;;0.32;100.00;101744.34;5224487;28;20119;-76
2021/04/07 06:31:24;;;;;;;11.88;5.50;;;;;;;0.41;100.00;101749.16;5224499;28;20514;-74
2021/04/07 06:33:54;;;;;;;12.75;4.22;;;;;;;0.46;100.00;101744.50;5224242;28;20032;-75
2021/04/07 06:36:25;;;;;;;14.07;2.60;;;;;;;0.44;100.00;101746.34;5224734;28;20021;-74
2021/04/07 06:38:55;;;;;;;8.15;2.97;;;;;;;0.46;100.00;101748.00;5222898;28;20448;-75
2021/04/07 06:41:26;;;;;;;11.32;2.30;;;;;;;0.38;100.00;101744.03;5224109;28;20021;-74
2021/04/07 06:43:57;;;;;;;19.48;2.72;;;;;;;0.35;100.00;101741.53;5221839;28;20328;-75
2021/04/07 06:46:28;;;;;;;13.02;2.65;;;;;;;0.47;100.00;101746.19;5225061;28;20497;-76
2021/04/07 06:49:00;;;;;;;6.75;1.90;;;;;;;0.41;100.00;101741.25;5227397;28;20037;-77
2021/04/07 06:51:32;;;;;;;10.88;2.00;;;;;;;0.44;100.00;101749.84;5227664;28;20053;-75
2021/04/07 06:54:05;;;;;;;7.38;2.17;;;;;;;0.56;100.00;101743.09;5227194;28;20053;-76
2021/04/07 06:56:35;;;;;;;13.98;2.88;;;;;;;0.76;100.00;101739.41;5228026;28;20020;-74
2021/04/07 06:59:07;;;;;;;28.70;12.50;;;;;;;0.73;100.00;101766.81;5227431;28;20032;-76
2021/04/07 07:01:37;;;;;;;13.93;3.35;;;;;;;0.69;100.00;101748.56;5227241;28;20033;-75
2021/04/07 07:04:08;;;;;;;8.18;2.97;;;;;;;0.76;100.00;101763.19;5226899;28;20432;-75
2021/04/07 07:06:38;;;;;;;16.25;7.43;;;;;;;0.88;100.00;101745.81;5227543;28;20029;-76
2021/04/07 07:09:18;;;;;;;14.90;4.45;;;;;;;0.76;100.00;101761.38;5227120;28;20029;-75
2021/04/07 07:11:50;;;;;;;14.63;7.57;;;;;;;0.88;100.00;101754.59;5227278;28;20368;-76
2021/04/07 07:14:21;;;;;;;10.55;2.58;;;;;;;0.86;100.00;101763.53;5226217;28;20042;-76
2021/04/07 07:16:52;;;;;;;7.50;2.13;;;;;;;0.74;100.00;101770.31;5227361;28;20031;-76
2021/04/07 07:19:25;;;;;;;17.80;3.58;;;;;;;0.80;100.00;101759.41;5227156;28;20053;-76
2021/04/07 07:22:01;;;;;;;9.77;2.10;;;;;;;0.77;100.00;101765.72;5227075;28;20025;-76
2021/04/07 07:24:34;;;;;;;12.32;2.13;;;;;;;0.80;100.00;101766.47;5226801;28;20029;-76
2021/04/07 07:27:07;;;;;;;10.40;1.65;;;;;;;0.88;100.00;101780.16;5226250;28;20064;-76
2021/04/07 07:29:38;;;;;;;4.30;1.52;;;;;;;0.92;100.00;101769.34;5227590;28;20048;-77
2021/04/07 07:32:11;;;;;;;14.30;2.10;;;;;;;0.91;100.00;101777.38;5227416;28;20029;-76
2021/04/07 07:34:41;;;;;;;12.82;2.03;;;;;;;0.99;100.00;101772.50;5225198;28;20025;-77
2021/04/07 07:37:23;;;;;;;8.20;1.83;;;;;;;0.94;100.00;101785.09;5226420;28;20031;-77
2021/04/07 07:39:54;;;;;;;6.05;1.73;;;;;;;0.93;100.00;101765.75;5226757;28;20091;-75
2021/04/07 07:42:24;;;;;;;15.68;1.85;;;;;;;0.95;100.00;101794.72;5225365;28;20029;-76
2021/04/07 07:44:55;;;;;;;5.53;1.77;;;;;;;1.01;100.00;101783.88;5226868;28;20567;-76
2021/04/07 07:47:30;;;;;;;4.85;2.20;;;;;;;1.02;100.00;101790.84;5226927;28;20067;-78
2021/04/07 07:50:03;;;;;;;11.35;1.98;;;;;;;1.02;100.00;101799.63;5226145;28;20087;-76
2021/04/07 07:52:37;;;;;;;9.70;2.10;;;;;;;1.01;100.00;101797.06;5225293;28;20029;-75
2021/04/07 07:55:13;;;;;;;5.40;2.00;;;;;;;0.98;100.00;101798.06;5225007;28;20032;-76
2021/04/07 07:57:54;;;;;;;8.05;2.72;;;;;;;1.02;100.00;101809.34;5225712;28;20040;-76
2021/04/07 08:00:26;;;;;;;15.20;2.95;;;;;;;1.10;100.00;101815.06;5226122;28;20079;-75
2021/04/07 08:03:07;;;;;;;10.35;3.20;;;;;;;0.99;100.00;101809.50;5225737;28;20029;-75
2021/04/07 08:05:38;;;;;;;11.65;3.00;;;;;;;0.96;100.00;101826.38;5226099;28;20029;-76
2021/04/07 08:08:10;;;;;;;9.18;2.50;;;;;;;0.96;100.00;101822.88;5226339;28;20029;-76
2021/04/07 08:10:41;;;;;;;7.32;2.13;;;;;;;1.04;100.00;101821.53;5220010;28;20044;-76
2021/04/07 08:13:11;;;;;;;8.88;2.63;;;;;;;1.01;100.00;101823.50;5224605;28;20021;-76
2021/04/07 08:15:44;;;;;;;10.80;3.47;;;;;;;1.09;100.00;101825.72;5224610;28;20546;-77
2021/04/07 08:18:15;;;;;;;15.20;2.60;;;;;;;1.15;100.00;101835.97;5226151;28;20128;-77
2021/04/07 08:20:46;;;;;;;17.52;2.88;;;;;;;1.19;100.00;101830.44;5225943;28;20028;-77
2021/04/07 08:23:18;;;;;;;8.50;2.50;;;;;;;1.33;100.00;101824.41;5225571;28;20367;-76
2021/04/07 08:25:55;;;;;;;11.18;2.40;;;;;;;1.28;100.00;101831.75;5225949;28;20021;-76
2021/04/07 08:28:28;;;;;;;9.93;2.10;;;;;;;1.29;100.00;101846.66;5225649;28;20474;-75
2021/04/07 08:30:59;;;;;;;15.80;3.45;;;;;;;1.36;100.00;101844.56;5207528;28;20036;-76
2021/04/07 08:33:29;;;;;;;19.20;3.15;;;;;;;1.38;100.00;101845.31;5223944;28;20464;-76
2021/04/07 08:36:00;;;;;;;11.85;3.03;;;;;;;1.41;100.00;101842.53;5224279;28;20120;-76
2021/04/07 08:38:33;;;;;;;14.80;2.40;;;;;;;1.45;100.00;101850.19;5224147;28;20078;-76
2021/04/07 08:41:12;;;;;;;14.73;3.13;;;;;;;1.37;100.00;101847.09;5225188;28;20072;-77
2021/04/07 08:43:43;;;;;;;11.98;2.70;;;;;;;1.46;100.00;101854.56;5241278;28;20494;-76
2021/04/07 08:46:15;;;;;;;14.07;3.42;;;;;;;1.47;100.00;101848.31;5226107;28;20082;-76
2021/04/07 08:48:46;;;;;;;6.53;2.28;;;;;;;1.58;100.00;101853.03;5225536;28;20025;-76
2021/04/07 08:51:19;;;;;;;17.75;3.35;;;;;;;1.59;100.00;101864.44;5225029;28;20115;-76
2021/04/07 08:53:55;;;;;;;15.00;3.00;;;;;;;1.64;100.00;101865.91;5224895;28;20032;-76
2021/04/07 08:56:28;;;;;;;17.95;2.92;;;;;;;1.71;100.00;101862.00;5225402;28;20094;-78
2021/04/07 08:59:01;;;;;;;14.75;3.92;;;;;;;1.85;100.00;101873.59;5223998;28;20067;-76
2021/04/07 09:01:34;;;;;;;13.25;4.03;;;;;;;1.82;100.00;101866.69;5224877;28;20025;-77
2021/04/07 09:04:09;;;;;;;27.70;7.05;;;;;;;1.96;100.00;101866.78;5224626;28;20032;-77
2021/04/07 09:06:57;;;;;;;30.85;11.85;;;;;;;2.08;100.00;101870.53;5224981;28;20434;-78
2021/04/07 09:09:34;;;;;;;29.52;7.63;;;;;;;2.20;100.00;101879.56;5217295;28;20417;-77
2021/04/07 09:12:05;;;;;;;25.38;6.97;;;;;;;2.21;100.00;101874.19;5225982;28;20446;-78
2021/04/07 09:14:36;;;;;;;18.27;5.07;;;;;;;2.20;100.00;101879.56;5203445;28;20052;-76
2021/04/07 09:17:07;;;;;;;25.25;6.72;;;;;;;2.25;100.00;101888.09;5218554;28;20033;-76
2021/04/07 09:19:37;;;;;;;17.58;4.70;;;;;;;2.31;100.00;101890.41;5225111;28;20435;-77
2021/04/07 09:22:08;;;;;;;12.20;3.38;;;;;;;2.30;100.00;101897.47;5224533;28;20028;-77
2021/04/07 09:24:42;;;;;;;13.27;3.20;;;;;;;2.32;100.00;101894.75;5224734;28;20033;-78
2021/04/07 09:27:21;;;;;;;27.77;3.88;;;;;;;2.24;100.00;101894.34;5225041;28;20033;-77
2021/04/07 09:29:52;;;;;;;15.30;3.22;;;;;;;2.15;100.00;101901.00;5223981;28;20032;-77
2021/04/07 09:32:22;;;;;;;16.73;3.50;;;;;;;2.25;100.00;101906.63;5224446;28;20040;-77
2021/04/07 09:34:55;;;;;;;14.75;3.85;;;;;;;2.29;100.00;101900.22;5205989;28;20115;-77
2021/04/07 09:37:26;;;;;;;23.95;3.80;;;;;;;2.37;100.00;101905.09;5211218;28;20102;-78
2021/04/07 09:39:59;;;;;;;19.95;3.70;;;;;;;2.41;100.00;101906.59;5224010;28;20029;-77
2021/04/07 09:42:30;;;;;;;20.83;3.85;;;;;;;2.51;100.00;101916.63;5223964;28;20479;-77
2021/04/07 09:45:00;;;;;;;29.50;3.47;;;;;;;2.51;100.00;101919.25;5209829;28;20060;-77
2021/04/07 09:47:31;;;;;;;22.20;3.15;;;;;;;2.67;100.00;101913.06;5224438;28;20496;-76
2021/04/07 09:50:09;;;;;;;13.13;3.00;;;;;;;2.68;100.00;101918.28;5223758;28;20494;-79
2021/04/07 09:52:40;;;;;;;16.05;3.30;;;;;;;2.82;100.00;101915.69;5224242;28;20041;-78
2021/04/07 09:55:19;;;;;;;262.98;74.97;;;;;;;2.96;100.00;101921.94;5223757;28;20032;-77
2021/04/07 09:57:57;;;;;;;30.05;8.90;;;;;;;3.00;100.00;101924.31;5223971;28;20025;-77
2021/04/07 10:00:30;;;;;;;19.13;4.50;;;;;;;3.19;100.00;101934.69;5223925;28;20147;-77
2021/04/07 10:03:03;;;;;;;14.55;4.93;;;;;;;3.17;100.00;101931.28;5223149;28;20067;-76
2021/04/07 10:05:33;;;;;;;21.00;5.20;;;;;;;3.21;100.00;101926.63;5221998;28;20434;-76
2021/04/07 10:08:13;;;;;;;19.83;4.10;;;;;;;3.27;100.00;101928.94;5223888;28;20029;-76
2021/04/07 10:10:43;;;;;;;21.92;4.80;;;;;;;3.44;100.00;101928.75;5224348;28;20040;-78
2021/04/07 10:13:14;;;;;;;27.90;4.97;;;;;;;3.49;100.00;101929.31;5218513;28;20033;-78
2021/04/07 10:15:44;;;;;;;30.77;4.50;;;;;;;3.49;100.00;101936.44;5223858;28;20509;-78
2021/04/07 10:18:17;;;;;;;28.45;4.57;;;;;;;3.54;100.00;101929.03;5223841;28;20059;-78
2021/04/07 10:20:48;;;;;;;20.48;4.28;;;;;;;3.61;100.00;101935.66;5222081;28;20162;-77
2021/04/07 10:23:21;;;;;;;21.83;3.45;;;;;;;3.65;100.00;101945.16;5223439;28;20111;-77
2021/04/07 10:25:55;;;;;;;16.00;2.80;;;;;;;3.80;100.00;101946.84;5223489;28;20163;-78
2021/04/07 10:28:26;;;;;;;22.05;3.92;;;;;;;3.92;100.00;101945.25;5209043;28;20060;-77
2021/04/07 10:30:56;;;;;;;26.70;3.80;;;;;;;3.98;100.00;101955.47;5223368;28;20115;-77
2021/04/07 10:33:27;;;;;;;17.25;3.72;;;;;;;4.11;100.00;101944.91;5221659;28;20024;-78
2021/04/07 10:35:59;;;;;;;27.13;3.55;;;;;;;4.20;100.00;101948.78;5223343;28;20044;-78
2021/04/07 10:38:32;;;;;;;23.27;3.47;;;;;;;4.28;100.00;101960.66;5222904;28;20033;-77
2021/04/07 10:41:05;;;;;;;24.17;3.47;;;;;;;4.29;100.00;101958.84;5223865;28;20036;-78
2021/04/07 10:43:39;;;;;;;28.83;4.00;;;;;;;4.26;100.00;101957.22;5223790;28;20048;-78
2021/04/07 10:46:09;;;;;;;18.77;4.25;;;;;;;4.25;100.00;101966.13;5223529;28;20032;-78
2021/04/07 10:48:40;;;;;;;30.90;4.07;;;;;;;4.23;100.00;101975.19;5224191;28;20377;-77
2021/04/07 10:51:21;;;;;;;21.70;4.78;;;;;;;4.29;100.00;101969.47;5224422;28;20037;-78
2021/04/07 10:53:59;;;;;;;19.33;3.58;;;;;;;4.30;100.00;101972.00;5224706;28;20017;-77
2021/04/07 10:56:31;;;;;;;20.55;3.72;;;;;;;4.37;100.00;101983.13;5224498;28;20021;-77
2021/04/07 10:59:05;;;;;;;15.63;3.83;;;;;;;4.49;100.00;101978.81;5224579;28;20060;-81
2021/04/07 11:01:37;;;;;;;25.73;6.50;;;;;;;4.56;100.00;101993.41;5224102;28;20079;-78
2021/04/07 11:04:15;;;;;;;21.67;5.68;;;;;;;4.73;100.00;101989.66;5224427;28;20028;-78
2021/04/07 11:06:54;;;;;;;21.30;4.57;;;;;;;4.75;100.00;101993.06;5224166;28;20064;-81
2021/04/07 11:09:32;;;;;;;23.70;4.75;;;;;;;4.80;100.00;101994.44;5224807;28;20409;-80
2021/04/07 11:12:04;;;;;;;17.90;3.90;;;;;;;4.81;100.00;102003.28;5225676;28;20021;-78
2021/04/07 11:14:35;;;;;;;28.23;4.88;;;;;;;4.75;100.00;102009.00;5224133;28;20460;-78
2021/04/07 11:17:05;;;;;;;20.58;4.07;;;;;;;4.85;100.00;102005.63;5224797;28;20125;-78
2021/04/07 11:19:38;;;;;;;15.38;3.60;;;;;;;4.92;100.00;102011.44;5223144;28;20063;-78
2021/04/07 11:22:09;;;;;;;17.40;3.92;;;;;;;5.02;100.00;102012.53;5224656;28;20032;-78
2021/04/07 11:24:39;;;;;;;18.00;3.67;;;;;;;5.01;100.00;102021.44;5224675;28;20032;-82
2021/04/07 11:27:11;;;;;;;19.23;4.55;;;;;;;5.10;100.00;102017.31;5224172;28;20499;-78
2021/04/07 11:29:41;;;;;;;19.88;5.30;;;;;;;4.96;100.00;102007.59;5223755;28;20025;-81
2021/04/07 11:32:13;;;;;;;20.58;4.43;;;;;;;4.88;100.00;102017.91;5223832;28;20036;-81
2021/04/07 11:34:59;;;;;;;25.35;6.28;;;;;;;4.78;100.00;102014.97;5227100;28;20032;-81